createdAt,value
2019-05-13T00:00:14.178Z,53.50
2019-05-13T00:02:43.805Z,54.00
2019-05-13T00:05:14.458Z,54.00
2019-05-13T00:07:43.790Z,53.70
2019-05-13T00:10:14.350Z,53.60
2019-05-13T00:12:43.908Z,53.50
2019-05-13T00:15:13.968Z,53.70
2019-05-13T00:17:44.319Z,53.90
2019-05-13T00:20:14.108Z,53.90
2019-05-13T00:22:44.719Z,54.00
2019-05-13T00:25:14.294Z,54.10
2019-05-13T00:27:43.760Z,54.40
2019-05-13T00:30:14.233Z,54.60
2019-05-13T00:32:44.585Z,54.60
2019-05-13T00:35:14.122Z,54.50
2019-05-13T00:37:44.288Z,54.60
2019-05-13T00:40:14.339Z,54.90
2019-05-13T00:42:44.216Z,55.70
2019-05-13T00:45:14.480Z,54.70
2019-05-13T00:47:43.666Z,55.00
2019-05-13T00:50:14.291Z,54.40
2019-05-13T00:52:44.563Z,54.40
2019-05-13T00:55:11.760Z,54.30
2019-05-13T00:57:39.602Z,53.90
2019-05-13T01:00:07.691Z,54.80
2019-05-13T01:02:35.601Z,54.60
2019-05-13T01:05:04.390Z,53.90
2019-05-13T01:07:34.114Z,53.70
2019-05-13T01:10:04.169Z,53.10
2019-05-13T01:12:34.303Z,53.00
2019-05-13T01:15:03.919Z,54.20
2019-05-13T01:17:33.936Z,52.60
2019-05-13T01:20:03.944Z,52.90
2019-05-13T01:22:31.208Z,53.50
2019-05-13T01:24:59.042Z,53.30
2019-05-13T01:27:26.937Z,53.30
2019-05-13T01:29:54.774Z,52.90
2019-05-13T01:32:36.778Z,53.60
2019-05-13T01:35:05.138Z,53.70
2019-05-13T01:37:42.372Z,53.90
2019-05-13T01:40:05.065Z,55.60
2019-05-13T01:42:33.732Z,53.40
2019-05-13T01:45:01.633Z,53.40
2019-05-13T01:47:29.481Z,53.20
2019-05-13T01:49:57.360Z,53.70
2019-05-13T01:52:25.253Z,54.10
2019-05-13T01:54:54.381Z,53.90
2019-05-13T01:57:23.811Z,53.80
2019-05-13T01:59:53.836Z,53.70
2019-05-13T02:02:29.105Z,53.90
2019-05-13T02:04:56.984Z,54.40
2019-05-13T02:07:24.891Z,54.60
2019-05-13T02:09:53.517Z,54.50
2019-05-13T02:12:24.036Z,54.90
2019-05-13T02:14:53.422Z,55.90
2019-05-13T02:17:23.419Z,55.70
2019-05-13T02:19:51.312Z,54.90
2019-05-13T02:22:20.281Z,55.10
2019-05-13T02:24:48.220Z,55.40
2019-05-13T02:27:16.131Z,55.70
2019-05-13T02:29:44.104Z,55.40
2019-05-13T02:32:13.606Z,55.20
2019-05-13T02:34:43.662Z,54.80
2019-05-13T02:37:12.865Z,54.90
2019-05-13T02:39:42.779Z,54.20
2019-05-13T02:42:13.214Z,55.00
2019-05-13T02:44:43.642Z,54.70
2019-05-13T02:47:12.302Z,54.00
2019-05-13T02:49:42.981Z,53.90
2019-05-13T02:52:13.012Z,54.40
2019-05-13T02:54:42.702Z,54.70
2019-05-13T02:57:12.249Z,54.80
2019-05-13T02:59:42.041Z,54.70
2019-05-13T03:02:12.032Z,54.30
2019-05-13T03:04:39.188Z,55.20
2019-05-13T03:07:07.015Z,54.50
2019-05-13T03:09:34.896Z,54.20
2019-05-13T03:12:04.101Z,54.40
2019-05-13T03:14:32.622Z,54.60
2019-05-13T03:17:13.009Z,54.70
2019-05-13T03:19:43.234Z,55.00
2019-05-13T03:22:13.514Z,54.90
2019-05-13T03:24:43.001Z,55.00
2019-05-13T03:27:12.805Z,55.50
2019-05-13T03:29:43.215Z,56.20
2019-05-13T03:32:16.495Z,55.60
2019-05-13T03:34:45.595Z,55.50
2019-05-13T03:37:15.292Z,56.10
2019-05-13T03:39:43.460Z,55.90
2019-05-13T03:42:13.192Z,55.70
2019-05-13T03:44:43.815Z,56.10
2019-05-13T03:47:12.837Z,56.20
2019-05-13T03:49:43.404Z,56.30
2019-05-13T03:52:13.423Z,56.10
2019-05-13T03:54:43.566Z,56.30
2019-05-13T03:57:12.565Z,56.20
2019-05-13T03:59:43.623Z,56.10
2019-05-13T04:02:12.997Z,56.20
2019-05-13T04:04:42.327Z,56.90
2019-05-13T04:07:12.962Z,57.50
2019-05-13T04:09:42.540Z,57.10
2019-05-13T04:12:13.190Z,56.90
2019-05-13T04:14:42.418Z,56.20
2019-05-13T04:17:12.539Z,56.20
2019-05-13T04:19:42.340Z,56.40
2019-05-13T04:22:12.614Z,56.10
2019-05-13T04:24:42.543Z,56.10
2019-05-13T04:27:12.891Z,55.40
2019-05-13T04:29:39.073Z,54.90
2019-05-13T04:32:07.006Z,54.70
2019-05-13T04:34:34.872Z,54.50
2019-05-13T04:37:03.889Z,54.50
2019-05-13T04:39:44.475Z,54.30
2019-05-13T04:42:02.420Z,54.80
2019-05-13T04:44:32.303Z,55.50
2019-05-13T04:47:03.225Z,54.70
2019-05-13T04:49:32.690Z,54.10
2019-05-13T04:52:03.419Z,54.40
2019-05-13T04:54:52.801Z,54.30
2019-05-13T04:57:22.665Z,53.80
2019-05-13T04:59:51.781Z,54.30
2019-05-13T05:02:51.261Z,54.10
2019-05-13T05:06:03.200Z,54.00
2019-05-13T05:09:03.286Z,53.70
2019-05-13T05:12:32.075Z,52.90
2019-05-13T05:15:55.478Z,52.70
2019-05-13T05:19:23.675Z,52.70
2019-05-13T05:22:15.049Z,51.60
2019-05-13T05:25:18.235Z,52.10
2019-05-13T05:28:33.197Z,52.80
2019-05-13T05:31:27.862Z,52.10
2019-05-13T05:35:08.141Z,51.30
2019-05-13T05:38:35.461Z,52.20
2019-05-13T05:41:06.573Z,51.20
2019-05-13T05:43:37.614Z,51.50
2019-05-13T05:46:06.512Z,52.20
2019-05-13T05:48:36.583Z,50.70
2019-05-13T05:51:08.777Z,51.10
2019-05-13T05:53:42.231Z,50.50
2019-05-13T05:56:15.072Z,51.30
2019-05-13T05:58:45.106Z,50.70
2019-05-13T06:01:15.716Z,50.80
2019-05-13T06:03:44.300Z,50.50
2019-05-13T06:06:13.948Z,49.80
2019-05-13T06:08:42.814Z,48.30
2019-05-13T06:11:11.728Z,48.30
2019-05-13T06:13:42.047Z,48.80
2019-05-13T06:16:12.197Z,48.60
2019-05-13T06:18:43.738Z,49.00
2019-05-13T06:21:12.293Z,49.40
2019-05-13T06:23:41.878Z,47.50
2019-05-13T06:26:12.516Z,47.50
2019-05-13T06:28:41.450Z,47.70
2019-05-13T06:31:09.473Z,48.00
2019-05-13T06:33:37.507Z,47.50
2019-05-13T06:36:05.702Z,48.10
2019-05-13T06:38:33.687Z,46.20
2019-05-13T06:41:07.132Z,45.80
2019-05-13T06:43:31.631Z,46.90
2019-05-13T06:46:01.880Z,46.50
2019-05-13T06:48:29.600Z,46.70
2019-05-13T06:50:57.589Z,47.40
2019-05-13T06:53:28.895Z,47.10
2019-05-13T06:55:56.789Z,47.40
2019-05-13T06:58:24.643Z,47.50
2019-05-13T07:00:57.276Z,48.20
2019-05-13T07:03:22.564Z,46.80
2019-05-13T07:05:52.435Z,45.50
2019-05-13T07:08:22.162Z,45.70
2019-05-13T07:10:51.554Z,45.50
2019-05-13T07:13:21.633Z,45.60
2019-05-13T07:15:51.949Z,45.00
2019-05-13T07:18:21.725Z,44.70
2019-05-13T07:20:48.946Z,41.70
2019-05-13T07:23:17.010Z,42.30
2019-05-13T07:25:44.965Z,41.80
2019-05-13T07:28:12.932Z,41.60
2019-05-13T07:30:43.206Z,40.50
2019-05-13T07:33:12.867Z,41.40
2019-05-13T07:35:44.647Z,42.80
2019-05-13T07:38:11.854Z,43.20
2019-05-13T07:40:41.768Z,42.20
2019-05-13T07:43:11.769Z,42.80
2019-05-13T07:45:42.068Z,40.90
2019-05-13T07:48:20.619Z,40.60
2019-05-13T07:50:51.651Z,40.40
2019-05-13T07:53:12.229Z,40.60
2019-05-13T07:55:38.925Z,39.60
2019-05-13T07:58:07.103Z,39.80
2019-05-13T08:00:35.005Z,39.40
2019-05-13T08:03:03.095Z,39.70
2019-05-13T08:05:31.498Z,40.30
2019-05-13T08:08:02.066Z,39.30
2019-05-13T08:10:29.359Z,38.90
2019-05-13T08:13:04.096Z,38.00
2019-05-13T08:15:32.194Z,37.40
2019-05-13T08:18:02.106Z,37.10
2019-05-13T08:20:32.577Z,37.70
2019-05-13T08:23:02.533Z,38.10
2019-05-13T08:25:31.558Z,38.20
2019-05-13T08:28:01.870Z,38.20
2019-05-13T08:30:31.832Z,38.50
2019-05-13T08:33:01.785Z,37.00
2019-05-13T08:35:31.486Z,37.10
2019-05-13T08:38:01.403Z,35.30
2019-05-13T08:40:31.814Z,35.90
2019-05-13T08:43:01.392Z,34.80
2019-05-13T08:45:31.520Z,34.40
2019-05-13T08:48:01.767Z,33.90
2019-05-13T08:50:32.220Z,35.10
2019-05-13T08:52:59.157Z,33.50
2019-05-13T08:55:27.104Z,32.90
2019-05-13T08:57:55.360Z,33.20
2019-05-13T09:00:58.644Z,33.50
2019-05-13T09:03:25.103Z,33.00
2019-05-13T09:05:53.930Z,33.20
2019-05-13T09:08:22.866Z,31.90
2019-05-13T09:10:52.096Z,31.50
2019-05-13T09:13:22.328Z,32.40
2019-05-13T09:15:51.716Z,31.30
2019-05-13T09:18:22.829Z,31.50
2019-05-13T09:20:52.079Z,30.80
2019-05-13T09:23:22.214Z,29.40
2019-05-13T09:25:52.164Z,28.70
2019-05-13T09:28:21.815Z,29.10
2019-05-13T09:30:53.023Z,28.40
2019-05-13T09:33:21.946Z,27.80
2019-05-13T09:35:53.341Z,28.40
2019-05-13T09:38:22.126Z,27.90
2019-05-13T09:40:52.897Z,27.40
2019-05-13T09:43:22.188Z,27.80
2019-05-13T09:45:52.358Z,27.10
2019-05-13T09:48:22.519Z,27.80
2019-05-13T09:50:51.674Z,28.60
2019-05-13T09:53:22.308Z,27.00
2019-05-13T09:55:52.157Z,27.40
2019-05-13T09:58:22.306Z,26.80
2019-05-13T10:00:52.495Z,25.90
2019-05-13T10:03:26.653Z,23.90
2019-05-13T10:05:51.780Z,24.80
2019-05-13T10:08:22.027Z,24.30
2019-05-13T10:10:52.321Z,24.10
2019-05-13T10:13:22.623Z,23.70
2019-05-13T10:15:49.954Z,23.70
2019-05-13T10:18:18.084Z,24.10
2019-05-13T10:20:58.026Z,24.40
2019-05-13T10:23:24.464Z,23.90
2019-05-13T10:25:55.895Z,22.30
2019-05-13T10:28:24.868Z,22.60
2019-05-13T10:30:53.311Z,22.40
2019-05-13T10:33:22.313Z,23.00
2019-05-13T10:35:52.664Z,23.10
2019-05-13T10:38:22.762Z,22.10
2019-05-13T10:43:30.898Z,21.30
2019-05-13T10:45:52.237Z,21.60
2019-05-13T10:48:22.024Z,21.30
2019-05-13T10:50:52.910Z,20.80
2019-05-13T10:53:22.027Z,20.90
2019-05-13T10:55:52.156Z,18.90
2019-05-13T10:58:23.041Z,18.30
2019-05-13T11:00:52.885Z,18.70
2019-05-13T11:03:22.909Z,18.00
2019-05-13T11:05:52.477Z,19.00
2019-05-13T11:08:22.521Z,18.10
2019-05-13T11:10:53.080Z,18.20
2019-05-13T11:13:23.254Z,18.70
2019-05-13T11:15:57.441Z,19.00
2019-05-13T11:18:24.128Z,17.80
2019-05-13T11:20:51.116Z,17.90
2019-05-13T11:23:19.107Z,17.70
2019-05-13T11:25:47.022Z,18.80
2019-05-13T11:36:43.124Z,17.70
2019-05-13T11:39:12.703Z,16.80
2019-05-13T11:41:42.457Z,16.80
2019-05-13T11:44:14.127Z,17.00
2019-05-13T11:46:38.839Z,16.90
2019-05-13T11:49:06.672Z,16.30
2019-05-13T11:51:34.584Z,15.90
2019-05-13T11:54:02.817Z,15.50
2019-05-13T11:56:33.712Z,15.60
2019-05-13T11:59:04.074Z,15.80
2019-05-13T12:01:33.457Z,15.50
2019-05-13T12:04:02.849Z,15.90
2019-05-13T12:06:33.908Z,16.20
2019-05-13T12:09:03.231Z,15.20
2019-05-13T12:11:33.323Z,15.20
2019-05-13T12:14:01.140Z,14.30
2019-05-13T12:16:29.073Z,16.30
2019-05-13T12:18:57.058Z,14.70
2019-05-13T12:21:25.687Z,14.30
2019-05-13T12:23:54.455Z,15.00
2019-05-13T12:26:23.758Z,14.00
2019-05-13T12:28:53.515Z,13.80
2019-05-13T12:31:23.119Z,13.70
2019-05-13T12:33:52.291Z,13.80
2019-05-13T12:36:23.461Z,12.80
2019-05-13T12:38:53.523Z,12.80
2019-05-13T12:41:22.893Z,12.80
2019-05-13T12:43:53.954Z,13.40
2019-05-13T12:46:24.699Z,13.90
2019-05-13T12:48:50.996Z,12.50
2019-05-13T12:51:19.381Z,12.90
2019-05-13T12:53:48.091Z,13.20
2019-05-13T12:56:16.028Z,13.90
2019-05-13T12:58:43.973Z,13.40
2019-05-13T13:01:12.955Z,14.40
2019-05-13T13:03:40.957Z,12.80
2019-05-13T13:06:27.189Z,13.90
2019-05-13T13:08:47.537Z,13.50
2019-05-13T13:11:09.017Z,14.20
2019-05-13T13:13:56.615Z,13.40
2019-05-13T13:16:07.028Z,13.90
2019-05-13T13:18:35.485Z,12.60
2019-05-13T13:21:07.192Z,12.80
2019-05-13T13:23:34.167Z,12.40
2019-05-13T13:26:03.285Z,13.30
2019-05-13T13:28:34.197Z,12.60
2019-05-13T13:31:04.194Z,13.20
2019-05-13T13:33:34.174Z,12.80
2019-05-13T13:36:04.339Z,12.60
2019-05-13T13:38:32.614Z,11.60
2019-05-13T13:41:03.899Z,12.50
2019-05-13T13:43:36.853Z,12.00
2019-05-13T13:46:23.206Z,11.30
2019-05-13T13:48:33.319Z,12.90
2019-05-13T13:51:04.008Z,12.20
2019-05-13T13:53:33.238Z,11.50
2019-05-13T13:56:02.291Z,11.00
2019-05-13T13:58:32.734Z,11.50
2019-05-13T14:01:10.490Z,11.20
2019-05-13T14:03:34.049Z,11.00
2019-05-13T14:06:05.726Z,11.70
2019-05-13T14:06:25.609Z,21.60
2019-05-13T14:08:30.222Z,11.70
2019-05-13T14:10:58.242Z,11.70
2019-05-13T14:13:26.199Z,12.30
2019-05-13T14:15:54.107Z,12.70
2019-05-13T14:18:26.712Z,11.90
2019-05-13T14:20:52.894Z,11.80
2019-05-13T14:23:21.553Z,11.90
2019-05-13T14:25:52.155Z,11.20
2019-05-13T14:28:22.873Z,11.90
2019-05-13T14:30:51.455Z,11.70
2019-05-13T14:33:20.629Z,12.10
2019-05-13T14:35:48.732Z,11.10
2019-05-13T14:38:16.703Z,11.30
2019-05-13T14:40:45.014Z,11.60
2019-05-13T14:43:13.409Z,12.00
2019-05-13T14:45:41.394Z,12.00
2019-05-13T14:48:09.369Z,12.20
2019-05-13T14:50:37.222Z,14.00
2019-05-13T14:53:05.250Z,12.70
2019-05-13T14:55:33.212Z,11.80
2019-05-13T14:58:01.675Z,11.80
2019-05-13T15:00:33.238Z,12.40
2019-05-13T15:03:03.088Z,12.40
2019-05-13T15:05:31.483Z,12.90
2019-05-13T15:07:59.500Z,12.10
2019-05-13T15:10:27.476Z,12.80
2019-05-13T15:12:55.792Z,12.00
2019-05-13T15:15:23.759Z,12.80
2019-05-13T15:17:52.081Z,13.20
2019-05-13T15:20:21.840Z,12.90
2019-05-13T15:22:51.939Z,13.40
2019-05-13T15:25:22.306Z,13.00
2019-05-13T15:27:52.798Z,12.90
2019-05-13T15:30:21.980Z,12.40
2019-05-13T15:32:52.543Z,12.50
2019-05-13T15:35:20.181Z,12.20
2019-05-13T15:37:48.165Z,11.20
2019-05-13T15:40:16.098Z,11.80
2019-05-13T15:42:44.490Z,11.70
2019-05-13T15:45:12.794Z,12.80
2019-05-13T15:47:40.651Z,12.10
2019-05-13T15:50:09.102Z,11.90
2019-05-13T15:52:37.149Z,11.30
2019-05-13T15:55:05.464Z,12.10
2019-05-13T15:57:34.417Z,11.20
2019-05-13T16:00:02.874Z,11.50
2019-05-13T16:02:31.436Z,11.20
2019-05-13T16:05:02.135Z,11.10
2019-05-13T16:07:30.833Z,11.70
2019-05-13T16:09:58.794Z,12.60
2019-05-13T16:12:26.773Z,13.70
2019-05-13T16:14:55.031Z,14.50
2019-05-13T16:17:36.677Z,15.00
2019-05-13T16:19:55.105Z,15.50
2019-05-13T16:22:23.256Z,16.70
2019-05-13T16:24:52.186Z,16.80
2019-05-13T16:27:21.743Z,16.60
2019-05-13T16:29:51.562Z,16.80
2019-05-13T16:32:19.710Z,17.10
2019-05-13T16:34:47.640Z,17.20
2019-05-13T16:37:15.605Z,17.80
2019-05-13T16:39:43.623Z,17.30
2019-05-13T16:42:11.800Z,17.30
2019-05-13T16:44:40.117Z,17.40
2019-05-13T16:47:08.687Z,17.60
2019-05-13T16:49:36.793Z,17.40
2019-05-13T16:52:04.959Z,17.70
2019-05-13T16:54:33.236Z,17.40
2019-05-13T16:57:01.305Z,17.50
2019-05-13T16:59:31.485Z,17.40
2019-05-13T17:02:01.587Z,17.30
2019-05-13T17:04:29.279Z,18.00
2019-05-13T17:06:57.244Z,18.30
2019-05-13T17:09:25.239Z,18.30
2019-05-13T17:11:53.256Z,18.40
2019-05-13T17:14:21.657Z,17.70
2019-05-13T17:16:51.701Z,17.50
2019-05-13T17:19:19.774Z,17.50
2019-05-13T17:21:52.029Z,17.00
2019-05-13T17:24:22.608Z,17.30
2019-05-13T17:26:52.274Z,18.20
2019-05-13T17:29:21.160Z,17.50
2019-05-13T17:31:51.531Z,18.10
2019-05-13T17:34:21.189Z,18.20
2019-05-13T17:36:51.705Z,18.00
2019-05-13T17:39:21.315Z,17.70
2019-05-13T17:41:49.304Z,17.40
2019-05-13T17:44:17.497Z,18.00
2019-05-13T17:46:45.507Z,17.70
2019-05-13T17:49:13.939Z,17.90
2019-05-13T17:51:42.731Z,18.30
2019-05-13T17:54:11.799Z,18.50
2019-05-13T17:56:40.052Z,18.90
2019-05-13T17:59:08.406Z,19.00
2019-05-13T18:01:36.380Z,18.60
2019-05-13T18:04:04.543Z,19.20
2019-05-13T18:06:32.533Z,18.90
2019-05-13T18:09:01.199Z,18.50
2019-05-13T18:11:29.692Z,18.40
2019-05-13T18:13:57.780Z,18.50
2019-05-13T18:16:25.898Z,18.40
2019-05-13T18:18:53.981Z,18.30
2019-05-13T18:21:22.012Z,18.40
2019-05-13T18:23:52.135Z,18.70
2019-05-13T18:26:21.597Z,18.30
2019-05-13T18:28:51.496Z,18.20
2019-05-13T18:31:19.598Z,18.50
2019-05-13T18:33:47.835Z,18.80
2019-05-13T18:36:15.969Z,19.00
2019-05-13T18:38:44.120Z,19.80
2019-05-13T18:41:12.236Z,20.00
2019-05-13T18:43:41.360Z,20.10
2019-05-13T18:46:12.219Z,20.50
2019-05-13T18:48:57.196Z,20.70
2019-05-13T18:51:11.865Z,21.00
2019-05-13T18:53:41.609Z,21.20
2019-05-13T18:56:12.240Z,21.50
2019-05-13T18:58:39.926Z,21.60
2019-05-13T19:01:08.211Z,21.60
2019-05-13T19:03:36.294Z,21.40
2019-05-13T19:06:04.478Z,21.40
2019-05-13T19:08:32.596Z,21.80
2019-05-13T19:11:01.367Z,22.10
2019-05-13T19:13:32.267Z,22.20
2019-05-13T19:16:02.147Z,22.30
2019-05-13T19:18:32.032Z,22.70
2019-05-13T19:21:01.873Z,22.60
2019-05-13T19:23:31.483Z,22.80
2019-05-13T19:26:01.919Z,23.20
2019-05-13T19:28:31.774Z,23.40
2019-05-13T19:31:04.091Z,23.50
2019-05-13T19:33:32.195Z,23.60
2019-05-13T19:36:01.421Z,23.80
2019-05-13T19:38:31.883Z,23.80
2019-05-13T19:41:01.895Z,23.90
2019-05-13T19:43:31.416Z,24.20
2019-05-13T19:46:01.527Z,24.20
2019-05-13T19:48:32.351Z,24.20
2019-05-13T19:51:01.575Z,24.10
2019-05-13T19:53:31.915Z,24.50
2019-05-13T19:56:01.410Z,24.50
2019-05-13T19:58:32.085Z,25.40
2019-05-13T20:01:00.264Z,24.90
2019-05-13T20:03:28.478Z,24.90
2019-05-13T20:05:57.068Z,25.40
2019-05-13T20:08:25.709Z,25.90
2019-05-13T20:10:54.204Z,25.70
2019-05-13T20:13:22.358Z,25.70
2019-05-13T20:15:51.860Z,26.00
2019-05-13T20:18:22.490Z,26.00
2019-05-13T20:20:51.914Z,26.30
2019-05-13T20:23:21.423Z,26.50
2019-05-13T20:25:52.202Z,26.70
2019-05-13T20:28:20.818Z,27.00
2019-05-13T20:30:51.160Z,27.60
2019-05-13T20:33:22.091Z,27.50
2019-05-13T20:35:50.285Z,27.60
2019-05-13T20:38:18.415Z,27.50
2019-05-13T20:40:46.586Z,28.30
2019-05-13T20:43:14.943Z,28.30
2019-05-13T20:45:43.260Z,28.40
2019-05-13T20:48:11.989Z,28.50
2019-05-13T20:50:41.272Z,28.60
2019-05-13T20:53:11.556Z,28.50
2019-05-13T20:55:41.776Z,28.40
2019-05-13T20:58:12.519Z,28.60
2019-05-13T21:00:42.028Z,28.80
2019-05-13T21:03:11.724Z,28.80
2019-05-13T21:05:41.557Z,28.60
2019-05-13T21:08:10.944Z,28.50
2019-05-13T21:10:39.360Z,28.50
2019-05-13T21:13:07.515Z,28.50
2019-05-13T21:15:35.547Z,28.60
2019-05-13T21:18:03.770Z,28.60
2019-05-13T21:20:32.151Z,28.60
2019-05-13T21:23:02.282Z,28.70
2019-05-13T21:25:31.096Z,28.70
2019-05-13T21:27:59.290Z,29.00
2019-05-13T21:30:27.387Z,29.10
2019-05-13T21:32:55.278Z,29.40
2019-05-13T21:35:23.240Z,29.50
2019-05-13T21:37:51.464Z,29.40
2019-05-13T21:40:21.560Z,29.40
2019-05-13T21:42:49.516Z,29.60
2019-05-13T21:45:17.616Z,29.50
2019-05-13T21:47:45.923Z,29.50
2019-05-13T21:50:14.142Z,29.70
2019-05-13T21:52:42.494Z,30.00
2019-05-13T21:55:11.471Z,30.00
2019-05-13T21:57:41.499Z,30.10
2019-05-13T22:00:15.458Z,30.60
2019-05-13T22:02:45.557Z,30.60
2019-05-13T22:05:14.167Z,30.60
2019-05-13T22:07:42.270Z,30.60
2019-05-13T22:10:11.459Z,31.60
2019-05-13T22:12:41.446Z,31.60
2019-05-13T22:15:09.809Z,32.10
2019-05-13T22:17:38.049Z,32.30
2019-05-13T22:20:07.444Z,32.10
2019-05-13T22:22:35.649Z,32.30
2019-05-13T22:25:04.971Z,32.20
2019-05-13T22:27:32.971Z,31.60
2019-05-13T22:30:01.401Z,31.90
2019-05-13T22:32:29.542Z,31.80
2019-05-13T22:34:58.516Z,31.80
2019-05-13T22:37:26.625Z,31.90
2019-05-13T22:39:55.229Z,31.90
2019-05-13T22:42:23.577Z,32.00
2019-05-13T22:44:52.287Z,31.90
2019-05-13T22:47:22.010Z,32.00
2019-05-13T22:49:50.522Z,33.20
2019-05-13T22:52:18.708Z,32.40
2019-05-13T22:54:46.685Z,32.30
2019-05-13T22:57:14.644Z,32.40
2019-05-13T22:59:42.656Z,32.40
2019-05-13T23:02:10.808Z,33.20
2019-05-13T23:04:39.024Z,32.50
2019-05-13T23:07:08.284Z,32.60
2019-05-13T23:09:36.335Z,32.60
2019-05-13T23:12:05.570Z,32.90
2019-05-13T23:14:33.544Z,33.00
2019-05-13T23:17:02.114Z,33.20
2019-05-13T23:19:32.372Z,33.40
2019-05-13T23:22:01.606Z,33.50
2019-05-13T23:24:31.182Z,33.80
2019-05-13T23:27:01.959Z,34.30
2019-05-13T23:29:31.711Z,34.50
2019-05-13T23:32:01.431Z,34.90
2019-05-13T23:34:31.718Z,34.80
2019-05-13T23:36:59.525Z,35.00
2019-05-13T23:39:27.500Z,35.00
2019-05-13T23:41:56.230Z,35.00
2019-05-13T23:44:28.003Z,35.00
2019-05-13T23:46:54.634Z,35.30
2019-05-13T23:49:22.706Z,35.20
2019-05-13T23:51:52.007Z,35.30
2019-05-13T23:54:21.372Z,35.30
2019-05-13T23:56:49.562Z,34.90
2019-05-13T23:59:17.534Z,34.90
